createdAt,value
2022-12-24T00:01:26.444Z,1.63
2022-12-24T00:04:27.312Z,2.00
2022-12-24T00:07:29.195Z,1.33
2022-12-24T00:10:30.571Z,1.50
2022-12-24T00:13:31.677Z,1.50
2022-12-24T00:16:32.662Z,2.05
2022-12-24T00:19:33.837Z,1.75
2022-12-24T00:22:34.750Z,1.50
2022-12-24T00:25:35.431Z,1.90
2022-12-24T00:28:36.587Z,2.10
2022-12-24T00:31:37.650Z,1.70
2022-12-24T00:34:39.137Z,2.78
2022-12-24T00:37:40.255Z,2.67
2022-12-24T00:40:41.077Z,2.33
2022-12-24T00:43:41.764Z,3.97
2022-12-24T00:46:42.999Z,1.83
2022-12-24T00:49:44.021Z,1.35
2022-12-24T00:52:45.188Z,1.10
2022-12-24T00:55:46.059Z,2.88
2022-12-24T00:58:47.515Z,2.05
2022-12-24T01:01:48.509Z,1.98
2022-12-24T01:05:08.351Z,1.27
2022-12-24T01:08:09.091Z,3.75
2022-12-24T01:11:12.897Z,2.95
2022-12-24T01:14:13.609Z,2.72
2022-12-24T01:17:14.387Z,1.25
2022-12-24T01:20:17.939Z,2.95
2022-12-24T01:23:18.576Z,2.28
2022-12-24T01:26:19.541Z,1.58
2022-12-24T01:29:20.564Z,2.03
2022-12-24T01:32:21.729Z,1.15
2022-12-24T01:35:22.898Z,1.35
2022-12-24T01:38:23.967Z,1.00
2022-12-24T01:41:44.474Z,2.15
2022-12-24T01:44:52.523Z,1.00
2022-12-24T01:47:53.490Z,1.52
2022-12-24T01:51:11.210Z,1.30
2022-12-24T01:54:43.445Z,1.15
2022-12-24T01:57:56.045Z,1.33
2022-12-24T02:00:57.712Z,1.20
2022-12-24T02:03:59.335Z,1.27
2022-12-24T02:07:01.239Z,2.05
2022-12-24T02:10:06.656Z,1.13
2022-12-24T02:13:08.698Z,1.83
2022-12-24T02:16:43.918Z,1.15
2022-12-24T02:20:04.260Z,1.10
2022-12-24T02:24:02.853Z,1.55
2022-12-24T02:27:49.545Z,1.48
2022-12-24T02:34:47.960Z,1.52
2022-12-24T02:38:00.628Z,1.85
2022-12-24T02:41:22.052Z,2.50
2022-12-24T02:44:28.669Z,3.55
2022-12-24T02:47:34.071Z,1.38
2022-12-24T02:50:36.092Z,3.72
2022-12-24T02:53:38.643Z,2.35
2022-12-24T02:57:28.610Z,2.25
2022-12-24T03:00:49.749Z,1.55
2022-12-24T03:04:19.182Z,2.05
2022-12-24T03:07:33.273Z,1.90
2022-12-24T03:11:01.559Z,1.80
2022-12-24T03:14:03.795Z,1.63
2022-12-24T03:17:04.975Z,2.80
2022-12-24T03:20:09.865Z,2.13
2022-12-24T03:23:11.586Z,4.70
2022-12-24T03:26:17.623Z,1.90
2022-12-24T03:29:19.830Z,1.85
2022-12-24T03:32:31.985Z,1.98
2022-12-24T03:35:33.049Z,1.80
2022-12-24T03:38:35.046Z,1.80
2022-12-24T03:41:37.557Z,1.35
2022-12-24T03:44:38.488Z,2.20
2022-12-24T03:47:39.376Z,1.38
2022-12-24T03:50:40.067Z,3.40
2022-12-24T03:53:40.895Z,2.50
2022-12-24T03:56:41.641Z,3.17
2022-12-24T03:59:42.934Z,1.42
2022-12-24T04:02:44.011Z,3.15
2022-12-24T04:05:45.322Z,1.30
2022-12-24T04:08:46.782Z,1.67
2022-12-24T04:11:47.851Z,2.17
2022-12-24T04:14:49.237Z,2.30
2022-12-24T04:17:50.025Z,1.88
2022-12-24T04:20:50.752Z,2.33
2022-12-24T04:23:51.394Z,2.00
2022-12-24T04:26:52.325Z,1.50
2022-12-24T04:29:53.419Z,1.70
2022-12-24T04:32:54.651Z,1.30
2022-12-24T04:35:58.233Z,1.92
2022-12-24T04:38:59.320Z,2.20
2022-12-24T04:42:00.037Z,1.58
2022-12-24T04:45:00.867Z,1.70
2022-12-24T04:48:01.847Z,1.63
2022-12-24T04:51:07.732Z,1.95
2022-12-24T04:54:08.818Z,1.25
2022-12-24T04:57:09.604Z,1.38
2022-12-24T05:00:12.413Z,1.27
2022-12-24T05:03:13.877Z,2.47
2022-12-24T05:06:20.562Z,2.03
2022-12-24T05:09:21.185Z,2.05
2022-12-24T05:12:22.052Z,2.13
2022-12-24T05:15:22.893Z,2.25
2022-12-24T05:18:24.090Z,1.77
2022-12-24T05:21:26.136Z,2.05
2022-12-24T05:24:45.595Z,1.60
2022-12-24T05:27:51.083Z,0.95
2022-12-24T05:30:52.488Z,1.73
2022-12-24T05:33:54.994Z,1.48
2022-12-24T05:36:56.021Z,3.35
2022-12-24T05:39:57.096Z,2.35
2022-12-24T05:42:57.711Z,1.92
2022-12-24T05:46:02.371Z,1.73
2022-12-24T05:49:03.222Z,1.60
2022-12-24T05:52:04.101Z,2.28
2022-12-24T05:55:06.061Z,1.42
2022-12-24T05:58:07.189Z,2.00
2022-12-24T06:01:09.686Z,2.20
2022-12-24T06:04:10.737Z,5.90
2022-12-24T06:07:11.933Z,1.60
2022-12-24T06:10:12.810Z,3.72
2022-12-24T06:13:14.080Z,3.75
2022-12-24T06:16:19.366Z,2.70
2022-12-24T06:19:20.698Z,3.58
2022-12-24T06:22:21.746Z,2.92
2022-12-24T06:25:22.470Z,5.00
2022-12-24T06:28:23.507Z,5.30
2022-12-24T06:31:24.587Z,2.40
2022-12-24T06:34:25.847Z,4.30
2022-12-24T06:37:26.601Z,2.85
2022-12-24T06:40:28.038Z,1.85
2022-12-24T06:43:29.064Z,1.60
2022-12-24T06:46:29.963Z,4.25
2022-12-24T06:49:31.372Z,2.83
2022-12-24T06:52:32.250Z,1.75
2022-12-24T06:55:33.460Z,3.03
2022-12-24T06:58:36.261Z,4.00
2022-12-24T07:01:37.217Z,2.55
2022-12-24T07:04:38.266Z,4.60
2022-12-24T07:07:42.364Z,2.28
2022-12-24T07:10:47.600Z,2.60
2022-12-24T07:13:51.782Z,6.45
2022-12-24T07:16:58.686Z,1.80
2022-12-24T07:20:00.377Z,1.70
2022-12-24T07:23:01.178Z,3.25
2022-12-24T07:26:06.114Z,1.77
2022-12-24T07:29:07.517Z,2.17
2022-12-24T07:32:08.994Z,2.28
2022-12-24T07:35:10.105Z,2.25
2022-12-24T07:38:11.299Z,1.73
2022-12-24T07:41:12.205Z,2.03
2022-12-24T07:44:14.646Z,2.88
2022-12-24T07:47:15.516Z,2.40
2022-12-24T07:50:16.442Z,5.57
2022-12-24T07:53:17.582Z,2.47
2022-12-24T07:56:18.317Z,2.22
2022-12-24T07:59:20.398Z,1.27
2022-12-24T08:02:21.622Z,2.25
2022-12-24T08:05:22.935Z,1.70
2022-12-24T08:08:24.517Z,2.10
2022-12-24T08:11:25.255Z,1.58
2022-12-24T08:14:25.945Z,2.78
2022-12-24T08:17:31.940Z,4.53
2022-12-24T08:20:33.528Z,1.77
2022-12-24T08:23:34.557Z,3.13
2022-12-24T08:26:35.572Z,1.50
2022-12-24T08:29:36.416Z,2.47
2022-12-24T08:32:37.246Z,1.40
2022-12-24T08:35:38.105Z,1.30
2022-12-24T08:38:38.829Z,1.38
2022-12-24T08:41:42.409Z,1.42
2022-12-24T08:44:43.556Z,3.22
2022-12-24T08:47:44.483Z,2.33
2022-12-24T08:50:45.378Z,1.10
2022-12-24T08:53:46.977Z,2.80
2022-12-24T08:56:47.811Z,1.92
2022-12-24T08:59:48.709Z,3.13
2022-12-24T09:02:49.786Z,1.92
2022-12-24T09:05:51.002Z,2.00
2022-12-24T09:08:52.310Z,2.55
2022-12-24T09:11:53.506Z,2.22
2022-12-24T09:14:59.608Z,1.77
2022-12-24T09:18:04.628Z,2.33
2022-12-24T09:21:17.680Z,2.30
2022-12-24T09:24:18.474Z,1.98
2022-12-24T09:27:19.555Z,3.03
2022-12-24T09:30:20.474Z,2.22
2022-12-24T09:33:21.305Z,2.10
2022-12-24T09:36:22.396Z,3.55
2022-12-24T09:39:23.366Z,1.88
2022-12-24T09:42:37.128Z,1.75
2022-12-24T09:45:46.012Z,2.53
2022-12-24T09:48:57.429Z,1.88
2022-12-24T09:52:08.352Z,6.55
2022-12-24T09:55:45.839Z,1.50
2022-12-24T09:58:58.585Z,1.70
2022-12-24T10:02:01.250Z,1.98
2022-12-24T10:05:02.435Z,1.90
2022-12-24T10:08:31.529Z,2.78
2022-12-24T10:11:47.551Z,1.77
2022-12-24T10:15:14.118Z,1.60
2022-12-24T10:18:35.779Z,1.98
2022-12-24T10:22:13.500Z,1.60
2022-12-24T10:25:37.895Z,1.52
2022-12-24T10:28:55.897Z,1.70
2022-12-24T10:32:07.719Z,1.95
2022-12-24T10:35:14.744Z,2.60
2022-12-24T10:38:15.600Z,2.22
2022-12-24T10:41:17.425Z,1.70
2022-12-24T10:44:23.723Z,1.98
2022-12-24T10:47:26.004Z,1.60
2022-12-24T10:50:58.836Z,1.70
2022-12-24T10:54:13.966Z,2.15
2022-12-24T10:57:27.248Z,1.60
2022-12-24T11:00:35.578Z,6.00
2022-12-24T11:03:38.383Z,1.70
2022-12-24T11:07:06.364Z,1.67
2022-12-24T11:10:22.900Z,1.63
2022-12-24T11:13:38.500Z,2.03
2022-12-24T11:16:40.174Z,1.50
2022-12-24T11:19:41.040Z,1.73
2022-12-24T11:22:42.381Z,3.65
2022-12-24T11:25:50.225Z,1.67
2022-12-24T11:29:22.893Z,1.15
2022-12-24T11:32:23.914Z,1.30
2022-12-24T11:35:26.685Z,1.20
2022-12-24T11:38:30.305Z,1.23
2022-12-24T11:41:37.842Z,1.77
2022-12-24T11:44:50.393Z,1.58
2022-12-24T11:47:53.708Z,1.52
2022-12-24T11:51:01.041Z,1.50
2022-12-24T11:54:20.173Z,1.30
2022-12-24T11:57:26.881Z,1.30
2022-12-24T12:00:29.144Z,1.55
2022-12-24T12:03:49.118Z,1.80
2022-12-24T12:07:12.858Z,1.30
2022-12-24T12:10:39.676Z,1.27
2022-12-24T12:13:44.302Z,1.17
2022-12-24T12:17:04.153Z,1.20
2022-12-24T12:20:17.014Z,1.33
2022-12-24T12:23:36.741Z,1.88
2022-12-24T12:26:39.369Z,1.27
2022-12-24T12:30:07.667Z,1.67
2022-12-24T12:33:42.113Z,1.45
2022-12-24T12:36:53.402Z,1.67
2022-12-24T12:39:55.365Z,1.25
2022-12-24T12:43:15.080Z,1.90
2022-12-24T12:46:56.057Z,2.42
2022-12-24T12:50:28.599Z,1.38
2022-12-24T12:54:13.359Z,1.50
2022-12-24T12:57:22.669Z,1.33
2022-12-24T13:00:24.175Z,1.63
2022-12-24T13:03:45.317Z,1.30
2022-12-24T13:07:34.258Z,2.08
2022-12-24T13:10:41.730Z,1.90
2022-12-24T13:13:51.173Z,1.25
2022-12-24T13:17:30.126Z,1.60
2022-12-24T13:20:39.776Z,1.75
2022-12-24T13:23:41.047Z,2.30
2022-12-24T13:26:43.361Z,1.35
2022-12-24T13:30:07.214Z,1.42
2022-12-24T13:33:14.513Z,1.73
2022-12-24T13:36:17.938Z,4.05
2022-12-24T13:39:22.115Z,1.63
2022-12-24T13:43:06.923Z,1.58
2022-12-24T13:46:08.117Z,1.80
2022-12-24T13:49:51.409Z,3.17
2022-12-24T13:52:54.594Z,2.40
2022-12-24T13:56:05.114Z,2.97
2022-12-24T13:59:39.635Z,1.95
2022-12-24T14:03:36.143Z,1.40
2022-12-24T14:06:42.241Z,1.77
2022-12-24T14:09:51.665Z,2.55
2022-12-24T14:12:54.336Z,1.38
2022-12-24T14:15:55.417Z,1.63
2022-12-24T14:19:45.055Z,5.75
2022-12-24T14:22:47.218Z,1.80
2022-12-24T14:25:48.144Z,1.60
2022-12-24T14:29:05.972Z,1.45
2022-12-24T14:32:16.025Z,3.45
2022-12-24T14:35:21.486Z,1.70
2022-12-24T14:38:23.115Z,1.63
2022-12-24T14:42:02.441Z,2.65
2022-12-24T14:45:33.359Z,1.55
2022-12-24T14:48:47.949Z,1.50
2022-12-24T14:52:04.923Z,1.52
2022-12-24T14:55:30.638Z,1.40
2022-12-24T14:58:37.178Z,5.32
2022-12-24T15:01:38.286Z,1.30
2022-12-24T15:04:39.329Z,2.17
2022-12-24T15:07:54.903Z,4.15
2022-12-24T15:11:02.759Z,1.73
2022-12-24T15:14:05.742Z,2.13
2022-12-24T15:17:08.599Z,1.55
2022-12-24T15:20:18.313Z,2.08
2022-12-24T15:23:26.411Z,1.45
2022-12-24T15:26:37.534Z,1.30
2022-12-24T15:29:44.968Z,1.55
2022-12-24T15:32:46.488Z,2.08
2022-12-24T15:35:56.800Z,2.00
2022-12-24T15:39:01.109Z,1.67
2022-12-24T15:42:14.416Z,2.42
2022-12-24T15:45:27.589Z,2.05
2022-12-24T15:48:31.607Z,2.10
2022-12-24T15:51:40.446Z,1.80
2022-12-24T15:54:55.384Z,3.00
2022-12-24T15:57:58.537Z,2.27
2022-12-24T16:01:26.727Z,1.95
2022-12-24T16:04:29.079Z,2.28
2022-12-24T16:07:49.867Z,2.75
2022-12-24T16:11:06.163Z,2.70
2022-12-24T16:14:17.318Z,2.05
2022-12-24T16:17:25.323Z,2.00
2022-12-24T16:20:26.163Z,2.63
2022-12-24T16:23:45.993Z,2.20
2022-12-24T16:26:48.195Z,2.05
2022-12-24T16:29:50.470Z,2.25
2022-12-24T16:32:51.517Z,2.20
2022-12-24T16:35:52.761Z,2.90
2022-12-24T16:39:12.868Z,3.00
2022-12-24T16:42:32.654Z,2.42
2022-12-24T16:45:37.358Z,3.05
2022-12-24T16:48:46.645Z,4.95
2022-12-24T16:51:47.824Z,3.35
2022-12-24T16:54:50.281Z,2.92
2022-12-24T16:57:51.146Z,3.03
2022-12-24T17:00:52.123Z,2.65
2022-12-24T17:03:52.940Z,3.78
2022-12-24T17:06:54.227Z,3.63
2022-12-24T17:09:54.899Z,3.63
2022-12-24T17:12:56.254Z,3.65
2022-12-24T17:15:57.201Z,3.67
2022-12-24T17:18:58.415Z,4.72
2022-12-24T17:21:59.116Z,4.82
2022-12-24T17:24:59.972Z,6.13
2022-12-24T17:28:01.210Z,9.30
2022-12-24T17:31:08.694Z,13.30
2022-12-24T17:34:09.768Z,5.72
2022-12-24T17:37:10.960Z,5.00
2022-12-24T17:40:12.595Z,4.65
2022-12-24T17:43:13.823Z,4.88
2022-12-24T17:46:19.160Z,5.82
2022-12-24T17:49:20.528Z,4.28
2022-12-24T17:52:21.433Z,4.53
2022-12-24T17:55:23.918Z,5.55
2022-12-24T17:58:24.866Z,8.02
2022-12-24T18:01:30.695Z,8.55
2022-12-24T18:04:31.666Z,6.07
2022-12-24T18:07:32.872Z,8.63
2022-12-24T18:10:33.561Z,4.38
2022-12-24T18:13:34.558Z,5.45
2022-12-24T18:16:39.617Z,6.28
2022-12-24T18:19:40.867Z,6.28
2022-12-24T18:22:41.771Z,8.48
2022-12-24T18:25:42.612Z,3.30
2022-12-24T18:28:44.472Z,4.78
2022-12-24T18:31:45.401Z,4.88
2022-12-24T18:34:46.678Z,4.95
2022-12-24T18:37:47.719Z,4.10
2022-12-24T18:40:48.610Z,6.45
2022-12-24T18:43:50.338Z,4.90
2022-12-24T18:46:51.701Z,4.93
2022-12-24T18:49:52.452Z,6.93
2022-12-24T18:52:53.284Z,4.93
2022-12-24T18:55:54.480Z,7.25
2022-12-24T18:59:02.268Z,10.52
2022-12-24T19:02:03.815Z,5.68
2022-12-24T19:05:05.211Z,6.22
2022-12-24T19:08:22.250Z,8.40
2022-12-24T19:11:31.333Z,8.70
2022-12-24T19:14:32.406Z,9.38
2022-12-24T19:17:33.690Z,13.05
2022-12-24T19:20:39.681Z,11.32
2022-12-24T19:23:40.689Z,10.77
2022-12-24T19:26:42.053Z,13.13
2022-12-24T19:29:42.849Z,15.23
2022-12-24T19:32:43.694Z,11.65
2022-12-24T19:35:44.368Z,13.07
2022-12-24T19:38:45.659Z,13.15
2022-12-24T19:41:46.457Z,14.25
2022-12-24T19:44:47.145Z,14.70
2022-12-24T19:47:50.892Z,12.52
2022-12-24T19:50:52.015Z,12.80
2022-12-24T19:53:55.374Z,12.27
2022-12-24T19:56:56.353Z,14.70
2022-12-24T19:59:57.146Z,15.63
2022-12-24T20:02:58.205Z,18.33
2022-12-24T20:05:59.507Z,14.85
2022-12-24T20:09:02.791Z,11.77
2022-12-24T20:12:04.109Z,18.88
2022-12-24T20:15:06.178Z,20.75
2022-12-24T20:18:08.110Z,17.83
2022-12-24T20:21:12.034Z,20.65
2022-12-24T20:24:13.598Z,16.98
2022-12-24T20:27:14.767Z,25.58
2022-12-24T20:30:16.302Z,22.75
2022-12-24T20:33:17.528Z,12.98
2022-12-24T20:36:21.580Z,14.43
2022-12-24T20:39:22.407Z,15.10
2022-12-24T20:42:23.131Z,18.98
2022-12-24T20:45:23.921Z,16.40
2022-12-24T20:48:25.613Z,16.65
2022-12-24T20:51:29.169Z,15.20
2022-12-24T20:54:30.304Z,15.07
2022-12-24T20:57:36.086Z,19.48
2022-12-24T21:00:37.393Z,17.60
2022-12-24T21:03:39.070Z,31.73
2022-12-24T21:06:40.253Z,28.17
2022-12-24T21:09:41.833Z,20.42
2022-12-24T21:12:49.191Z,20.27
2022-12-24T21:18:51.583Z,11.52
2022-12-24T21:21:52.700Z,8.88
2022-12-24T21:24:53.830Z,8.18
2022-12-24T21:27:55.782Z,7.78
2022-12-24T21:30:57.164Z,7.63
2022-12-24T21:33:58.526Z,6.15
2022-12-24T21:36:59.856Z,8.20
2022-12-24T21:40:01.120Z,5.97
2022-12-24T21:43:02.110Z,9.65
2022-12-24T21:46:19.474Z,6.80
2022-12-24T21:49:39.075Z,12.05
2022-12-24T21:52:40.341Z,16.02
2022-12-24T21:55:41.132Z,14.25
2022-12-24T21:58:42.330Z,16.08
2022-12-24T22:01:43.442Z,21.00
2022-12-24T22:04:45.131Z,17.92
2022-12-24T22:08:04.617Z,17.77
2022-12-24T22:11:31.722Z,15.95
2022-12-24T22:17:35.591Z,25.75
2022-12-24T22:20:38.431Z,21.20
2022-12-24T22:23:42.488Z,23.27
2022-12-24T22:26:43.921Z,24.20
2022-12-24T22:29:44.813Z,25.00
2022-12-24T22:32:45.832Z,24.20
2022-12-24T22:35:46.907Z,17.90
2022-12-24T22:38:47.724Z,19.80
2022-12-24T22:41:48.423Z,38.83
2022-12-24T22:44:49.188Z,39.38
2022-12-24T22:47:50.055Z,85.63
2022-12-24T22:50:51.147Z,35.05
2022-12-24T22:53:52.262Z,26.33
2022-12-24T22:56:53.452Z,35.47
2022-12-24T22:59:54.707Z,26.75
2022-12-24T23:02:55.822Z,27.95
2022-12-24T23:06:07.072Z,25.17
2022-12-24T23:09:12.285Z,25.85
2022-12-24T23:12:13.436Z,23.98
2022-12-24T23:15:14.613Z,20.52
2022-12-24T23:18:15.753Z,21.77
2022-12-24T23:21:16.754Z,25.85
2022-12-24T23:24:17.517Z,26.08
2022-12-24T23:27:18.320Z,25.00
2022-12-24T23:30:19.935Z,26.08
2022-12-24T23:33:20.882Z,23.17
2022-12-24T23:36:22.093Z,26.73
2022-12-24T23:39:23.251Z,28.42
2022-12-24T23:42:24.022Z,26.55
2022-12-24T23:45:24.576Z,26.25
2022-12-24T23:48:26.199Z,25.75
2022-12-24T23:51:28.921Z,25.20
2022-12-24T23:54:30.003Z,27.38
2022-12-24T23:57:30.882Z,28.30
